sensor_id;sensor_type;location;lat;lon;timestamp;P1;durP1;ratioP1;P2;durP2;ratioP2
12871;SDS011;6504;53.766;9.626;2023-05-29T00:01:05;11.27;;;3.30;;
12871;SDS011;6504;53.766;9.626;2023-05-29T00:03:34;10.30;;;2.90;;
12871;SDS011;6504;53.766;9.626;2023-05-29T00:06:02;8.77;;;3.17;;
12871;SDS011;6504;53.766;9.626;2023-05-29T00:08:33;9.17;;;3.40;;
12871;SDS011;6504;53.766;9.626;2023-05-29T00:11:01;8.40;;;3.43;;
12871;SDS011;6504;53.766;9.626;2023-05-29T00:13:29;11.63;;;3.63;;
12871;SDS011;6504;53.766;9.626;2023-05-29T00:15:58;12.33;;;3.37;;
12871;SDS011;6504;53.766;9.626;2023-05-29T00:18:27;8.50;;;3.00;;
12871;SDS011;6504;53.766;9.626;2023-05-29T00:20:55;8.70;;;3.47;;
12871;SDS011;6504;53.766;9.626;2023-05-29T00:23:23;7.10;;;3.00;;
12871;SDS011;6504;53.766;9.626;2023-05-29T00:25:53;8.90;;;2.83;;
12871;SDS011;6504;53.766;9.626;2023-05-29T00:28:21;8.43;;;3.20;;
12871;SDS011;6504;53.766;9.626;2023-05-29T00:30:49;12.03;;;3.70;;
12871;SDS011;6504;53.766;9.626;2023-05-29T00:33:17;10.63;;;3.40;;
12871;SDS011;6504;53.766;9.626;2023-05-29T00:35:46;11.43;;;3.60;;
12871;SDS011;6504;53.766;9.626;2023-05-29T00:38:14;8.33;;;3.07;;
12871;SDS011;6504;53.766;9.626;2023-05-29T00:40:42;10.60;;;3.37;;
12871;SDS011;6504;53.766;9.626;2023-05-29T00:43:12;6.33;;;3.00;;
12871;SDS011;6504;53.766;9.626;2023-05-29T00:45:40;6.57;;;3.07;;
12871;SDS011;6504;53.766;9.626;2023-05-29T00:48:08;9.70;;;3.37;;
12871;SDS011;6504;53.766;9.626;2023-05-29T00:50:36;7.47;;;3.03;;
12871;SDS011;6504;53.766;9.626;2023-05-29T00:53:04;12.30;;;3.57;;
12871;SDS011;6504;53.766;9.626;2023-05-29T00:55:34;9.27;;;3.43;;
12871;SDS011;6504;53.766;9.626;2023-05-29T00:58:02;11.93;;;3.77;;
12871;SDS011;6504;53.766;9.626;2023-05-29T01:00:32;7.37;;;2.97;;
12871;SDS011;6504;53.766;9.626;2023-05-29T01:03:02;10.47;;;3.30;;
12871;SDS011;6504;53.766;9.626;2023-05-29T01:05:33;10.27;;;3.27;;
12871;SDS011;6504;53.766;9.626;2023-05-29T01:08:02;10.87;;;3.20;;
12871;SDS011;6504;53.766;9.626;2023-05-29T01:10:30;9.23;;;2.80;;
12871;SDS011;6504;53.766;9.626;2023-05-29T01:12:59;9.03;;;3.03;;
12871;SDS011;6504;53.766;9.626;2023-05-29T01:15:37;8.70;;;3.20;;
12871;SDS011;6504;53.766;9.626;2023-05-29T01:18:18;7.53;;;2.87;;
12871;SDS011;6504;53.766;9.626;2023-05-29T01:20:52;13.37;;;3.47;;
12871;SDS011;6504;53.766;9.626;2023-05-29T01:23:34;10.43;;;3.40;;
12871;SDS011;6504;53.766;9.626;2023-05-29T01:26:17;8.57;;;2.87;;
12871;SDS011;6504;53.766;9.626;2023-05-29T01:28:55;7.97;;;3.40;;
12871;SDS011;6504;53.766;9.626;2023-05-29T01:31:27;9.27;;;3.10;;
12871;SDS011;6504;53.766;9.626;2023-05-29T01:33:58;7.17;;;2.60;;
12871;SDS011;6504;53.766;9.626;2023-05-29T01:36:26;10.63;;;3.53;;
12871;SDS011;6504;53.766;9.626;2023-05-29T01:38:56;11.37;;;3.70;;
12871;SDS011;6504;53.766;9.626;2023-05-29T01:41:25;8.90;;;3.83;;
12871;SDS011;6504;53.766;9.626;2023-05-29T01:43:55;8.53;;;3.50;;
12871;SDS011;6504;53.766;9.626;2023-05-29T01:46:25;7.93;;;3.00;;
12871;SDS011;6504;53.766;9.626;2023-05-29T01:48:53;9.53;;;3.80;;
12871;SDS011;6504;53.766;9.626;2023-05-29T01:51:22;8.50;;;3.63;;
12871;SDS011;6504;53.766;9.626;2023-05-29T01:53:50;7.00;;;3.27;;
12871;SDS011;6504;53.766;9.626;2023-05-29T01:56:18;8.57;;;3.17;;
12871;SDS011;6504;53.766;9.626;2023-05-29T01:58:47;14.13;;;3.80;;
12871;SDS011;6504;53.766;9.626;2023-05-29T02:01:18;8.93;;;3.43;;
12871;SDS011;6504;53.766;9.626;2023-05-29T02:03:47;10.43;;;3.13;;
12871;SDS011;6504;53.766;9.626;2023-05-29T02:06:15;11.40;;;3.70;;
12871;SDS011;6504;53.766;9.626;2023-05-29T02:08:43;8.73;;;3.20;;
12871;SDS011;6504;53.766;9.626;2023-05-29T02:11:11;8.03;;;3.17;;
12871;SDS011;6504;53.766;9.626;2023-05-29T02:13:39;10.53;;;3.43;;
12871;SDS011;6504;53.766;9.626;2023-05-29T02:16:09;9.27;;;3.17;;
12871;SDS011;6504;53.766;9.626;2023-05-29T02:18:38;9.00;;;3.23;;
12871;SDS011;6504;53.766;9.626;2023-05-29T02:21:07;9.63;;;3.43;;
12871;SDS011;6504;53.766;9.626;2023-05-29T02:23:35;11.27;;;3.30;;
12871;SDS011;6504;53.766;9.626;2023-05-29T02:26:03;7.67;;;3.20;;
12871;SDS011;6504;53.766;9.626;2023-05-29T02:28:31;6.87;;;3.30;;
12871;SDS011;6504;53.766;9.626;2023-05-29T02:30:59;9.97;;;4.13;;
12871;SDS011;6504;53.766;9.626;2023-05-29T02:33:27;9.77;;;3.20;;
12871;SDS011;6504;53.766;9.626;2023-05-29T02:35:57;10.10;;;3.87;;
12871;SDS011;6504;53.766;9.626;2023-05-29T02:38:25;6.70;;;3.00;;
12871;SDS011;6504;53.766;9.626;2023-05-29T02:40:53;8.33;;;3.00;;
12871;SDS011;6504;53.766;9.626;2023-05-29T02:43:22;9.03;;;3.30;;
12871;SDS011;6504;53.766;9.626;2023-05-29T02:45:51;7.50;;;2.77;;
12871;SDS011;6504;53.766;9.626;2023-05-29T02:48:19;7.53;;;3.20;;
12871;SDS011;6504;53.766;9.626;2023-05-29T02:50:47;8.40;;;3.37;;
12871;SDS011;6504;53.766;9.626;2023-05-29T02:53:16;11.20;;;3.80;;
12871;SDS011;6504;53.766;9.626;2023-05-29T02:55:44;10.73;;;3.40;;
12871;SDS011;6504;53.766;9.626;2023-05-29T02:58:13;10.63;;;3.73;;
12871;SDS011;6504;53.766;9.626;2023-05-29T03:00:42;9.10;;;3.40;;
12871;SDS011;6504;53.766;9.626;2023-05-29T03:03:10;8.70;;;3.30;;
12871;SDS011;6504;53.766;9.626;2023-05-29T03:05:38;10.00;;;3.03;;
12871;SDS011;6504;53.766;9.626;2023-05-29T03:08:06;10.07;;;3.53;;
12871;SDS011;6504;53.766;9.626;2023-05-29T03:10:36;9.57;;;3.33;;
12871;SDS011;6504;53.766;9.626;2023-05-29T03:13:04;8.87;;;3.47;;
12871;SDS011;6504;53.766;9.626;2023-05-29T03:15:32;7.53;;;2.97;;
12871;SDS011;6504;53.766;9.626;2023-05-29T03:18:00;5.37;;;2.47;;
12871;SDS011;6504;53.766;9.626;2023-05-29T03:20:28;9.63;;;3.03;;
12871;SDS011;6504;53.766;9.626;2023-05-29T03:22:56;10.63;;;3.07;;
12871;SDS011;6504;53.766;9.626;2023-05-29T03:25:25;8.70;;;2.70;;
12871;SDS011;6504;53.766;9.626;2023-05-29T03:27:54;6.73;;;2.50;;
12871;SDS011;6504;53.766;9.626;2023-05-29T03:30:22;7.77;;;2.93;;
12871;SDS011;6504;53.766;9.626;2023-05-29T03:32:50;6.17;;;2.77;;
12871;SDS011;6504;53.766;9.626;2023-05-29T03:35:18;6.40;;;3.20;;
12871;SDS011;6504;53.766;9.626;2023-05-29T03:37:46;9.57;;;2.90;;
12871;SDS011;6504;53.766;9.626;2023-05-29T03:40:14;7.57;;;3.07;;
12871;SDS011;6504;53.766;9.626;2023-05-29T03:42:42;8.67;;;2.67;;
12871;SDS011;6504;53.766;9.626;2023-05-29T03:45:12;9.73;;;3.13;;
12871;SDS011;6504;53.766;9.626;2023-05-29T03:47:40;6.70;;;2.80;;
12871;SDS011;6504;53.766;9.626;2023-05-29T03:50:08;8.37;;;3.00;;
12871;SDS011;6504;53.766;9.626;2023-05-29T03:52:37;8.47;;;2.70;;
12871;SDS011;6504;53.766;9.626;2023-05-29T03:55:08;7.67;;;2.60;;
12871;SDS011;6504;53.766;9.626;2023-05-29T03:57:39;10.80;;;3.07;;
12871;SDS011;6504;53.766;9.626;2023-05-29T04:00:08;7.30;;;2.07;;
12871;SDS011;6504;53.766;9.626;2023-05-29T04:02:39;6.97;;;2.77;;
12871;SDS011;6504;53.766;9.626;2023-05-29T04:05:08;8.10;;;2.50;;
12871;SDS011;6504;53.766;9.626;2023-05-29T04:07:36;6.47;;;2.40;;
12871;SDS011;6504;53.766;9.626;2023-05-29T04:10:05;7.77;;;2.77;;
12871;SDS011;6504;53.766;9.626;2023-05-29T04:12:34;7.37;;;2.40;;
12871;SDS011;6504;53.766;9.626;2023-05-29T04:15:02;6.93;;;2.70;;
12871;SDS011;6504;53.766;9.626;2023-05-29T04:17:31;5.90;;;2.20;;
12871;SDS011;6504;53.766;9.626;2023-05-29T04:20:00;7.30;;;2.60;;
12871;SDS011;6504;53.766;9.626;2023-05-29T04:22:34;5.97;;;2.57;;
12871;SDS011;6504;53.766;9.626;2023-05-29T04:25:03;9.43;;;3.40;;
12871;SDS011;6504;53.766;9.626;2023-05-29T04:27:31;8.93;;;3.10;;
12871;SDS011;6504;53.766;9.626;2023-05-29T04:30:04;10.00;;;3.13;;
12871;SDS011;6504;53.766;9.626;2023-05-29T04:32:33;8.33;;;2.87;;
12871;SDS011;6504;53.766;9.626;2023-05-29T04:35:02;8.17;;;2.97;;
12871;SDS011;6504;53.766;9.626;2023-05-29T04:37:31;10.13;;;3.00;;
12871;SDS011;6504;53.766;9.626;2023-05-29T04:40:04;7.17;;;3.00;;
12871;SDS011;6504;53.766;9.626;2023-05-29T04:42:34;8.53;;;2.80;;
12871;SDS011;6504;53.766;9.626;2023-05-29T04:45:03;6.90;;;3.60;;
12871;SDS011;6504;53.766;9.626;2023-05-29T04:47:32;8.10;;;2.90;;
12871;SDS011;6504;53.766;9.626;2023-05-29T04:50:00;11.77;;;3.53;;
12871;SDS011;6504;53.766;9.626;2023-05-29T04:52:29;9.77;;;3.13;;
12871;SDS011;6504;53.766;9.626;2023-05-29T04:54:58;7.10;;;2.70;;
12871;SDS011;6504;53.766;9.626;2023-05-29T04:57:26;11.17;;;3.80;;
12871;SDS011;6504;53.766;9.626;2023-05-29T04:59:54;11.00;;;3.10;;
12871;SDS011;6504;53.766;9.626;2023-05-29T05:02:22;7.03;;;2.80;;
12871;SDS011;6504;53.766;9.626;2023-05-29T05:04:51;12.20;;;3.73;;
12871;SDS011;6504;53.766;9.626;2023-05-29T05:07:19;7.53;;;3.53;;
12871;SDS011;6504;53.766;9.626;2023-05-29T05:09:48;11.67;;;3.30;;
12871;SDS011;6504;53.766;9.626;2023-05-29T05:12:16;12.07;;;3.40;;
12871;SDS011;6504;53.766;9.626;2023-05-29T05:14:44;10.27;;;3.43;;
12871;SDS011;6504;53.766;9.626;2023-05-29T05:17:12;10.97;;;3.77;;
12871;SDS011;6504;53.766;9.626;2023-05-29T05:19:40;9.43;;;3.53;;
12871;SDS011;6504;53.766;9.626;2023-05-29T05:22:08;10.53;;;3.83;;
12871;SDS011;6504;53.766;9.626;2023-05-29T05:24:37;10.27;;;3.77;;
12871;SDS011;6504;53.766;9.626;2023-05-29T05:27:06;12.00;;;3.47;;
12871;SDS011;6504;53.766;9.626;2023-05-29T05:29:34;10.20;;;3.83;;
12871;SDS011;6504;53.766;9.626;2023-05-29T05:32:02;13.37;;;3.80;;
12871;SDS011;6504;53.766;9.626;2023-05-29T05:34:31;12.17;;;3.70;;
12871;SDS011;6504;53.766;9.626;2023-05-29T05:36:59;10.60;;;4.13;;
12871;SDS011;6504;53.766;9.626;2023-05-29T05:39:29;12.07;;;3.60;;
12871;SDS011;6504;53.766;9.626;2023-05-29T05:41:57;10.73;;;4.27;;
12871;SDS011;6504;53.766;9.626;2023-05-29T05:44:26;11.27;;;4.10;;
12871;SDS011;6504;53.766;9.626;2023-05-29T05:46:54;13.83;;;3.90;;
12871;SDS011;6504;53.766;9.626;2023-05-29T05:49:22;9.73;;;3.60;;
12871;SDS011;6504;53.766;9.626;2023-05-29T05:51:50;11.03;;;3.40;;
12871;SDS011;6504;53.766;9.626;2023-05-29T05:54:18;10.07;;;3.60;;
12871;SDS011;6504;53.766;9.626;2023-05-29T05:56:46;14.27;;;3.77;;
12871;SDS011;6504;53.766;9.626;2023-05-29T05:59:14;13.17;;;3.33;;
12871;SDS011;6504;53.766;9.626;2023-05-29T06:01:44;14.67;;;3.70;;
12871;SDS011;6504;53.766;9.626;2023-05-29T06:04:12;10.73;;;4.10;;
12871;SDS011;6504;53.766;9.626;2023-05-29T06:06:41;11.10;;;3.90;;
12871;SDS011;6504;53.766;9.626;2023-05-29T06:09:09;14.03;;;3.80;;
12871;SDS011;6504;53.766;9.626;2023-05-29T06:11:38;15.33;;;4.10;;
12871;SDS011;6504;53.766;9.626;2023-05-29T06:14:06;14.30;;;4.13;;
12871;SDS011;6504;53.766;9.626;2023-05-29T06:16:34;12.67;;;4.27;;
12871;SDS011;6504;53.766;9.626;2023-05-29T06:19:03;15.23;;;5.00;;
12871;SDS011;6504;53.766;9.626;2023-05-29T06:21:31;16.83;;;4.50;;
12871;SDS011;6504;53.766;9.626;2023-05-29T06:23:59;13.33;;;3.60;;
12871;SDS011;6504;53.766;9.626;2023-05-29T06:26:28;12.07;;;4.20;;
12871;SDS011;6504;53.766;9.626;2023-05-29T06:28:56;13.37;;;4.37;;
12871;SDS011;6504;53.766;9.626;2023-05-29T06:31:24;13.63;;;4.33;;
12871;SDS011;6504;53.766;9.626;2023-05-29T06:33:52;14.67;;;4.83;;
12871;SDS011;6504;53.766;9.626;2023-05-29T06:36:22;19.37;;;4.47;;
12871;SDS011;6504;53.766;9.626;2023-05-29T06:38:50;15.80;;;4.53;;
12871;SDS011;6504;53.766;9.626;2023-05-29T06:41:19;12.67;;;4.10;;
12871;SDS011;6504;53.766;9.626;2023-05-29T06:43:47;16.17;;;4.17;;
12871;SDS011;6504;53.766;9.626;2023-05-29T06:46:15;14.13;;;5.10;;
12871;SDS011;6504;53.766;9.626;2023-05-29T06:48:43;12.50;;;4.27;;
12871;SDS011;6504;53.766;9.626;2023-05-29T06:51:11;15.47;;;4.37;;
12871;SDS011;6504;53.766;9.626;2023-05-29T06:53:41;13.67;;;4.07;;
12871;SDS011;6504;53.766;9.626;2023-05-29T06:56:09;13.47;;;4.50;;
12871;SDS011;6504;53.766;9.626;2023-05-29T06:58:37;14.07;;;4.30;;
12871;SDS011;6504;53.766;9.626;2023-05-29T07:01:06;16.63;;;4.63;;
12871;SDS011;6504;53.766;9.626;2023-05-29T07:03:34;12.33;;;3.93;;
12871;SDS011;6504;53.766;9.626;2023-05-29T07:06:03;13.37;;;4.27;;
12871;SDS011;6504;53.766;9.626;2023-05-29T07:08:32;13.40;;;3.73;;
12871;SDS011;6504;53.766;9.626;2023-05-29T07:11:02;14.97;;;4.03;;
12871;SDS011;6504;53.766;9.626;2023-05-29T07:13:30;15.93;;;4.90;;
12871;SDS011;6504;53.766;9.626;2023-05-29T07:15:58;11.53;;;3.60;;
12871;SDS011;6504;53.766;9.626;2023-05-29T07:18:42;13.10;;;4.10;;
12871;SDS011;6504;53.766;9.626;2023-05-29T07:21:10;13.70;;;3.73;;
12871;SDS011;6504;53.766;9.626;2023-05-29T07:23:39;9.70;;;4.20;;
12871;SDS011;6504;53.766;9.626;2023-05-29T07:26:08;12.57;;;4.10;;
12871;SDS011;6504;53.766;9.626;2023-05-29T07:28:36;11.47;;;4.13;;
12871;SDS011;6504;53.766;9.626;2023-05-29T07:31:04;11.73;;;3.70;;
12871;SDS011;6504;53.766;9.626;2023-05-29T07:33:32;13.50;;;3.67;;
12871;SDS011;6504;53.766;9.626;2023-05-29T07:36:00;13.23;;;4.63;;
12871;SDS011;6504;53.766;9.626;2023-05-29T07:38:28;11.70;;;4.40;;
12871;SDS011;6504;53.766;9.626;2023-05-29T07:40:56;11.80;;;3.87;;
12871;SDS011;6504;53.766;9.626;2023-05-29T07:43:26;11.00;;;4.00;;
12871;SDS011;6504;53.766;9.626;2023-05-29T07:45:54;14.47;;;4.37;;
12871;SDS011;6504;53.766;9.626;2023-05-29T07:48:22;9.60;;;3.60;;
12871;SDS011;6504;53.766;9.626;2023-05-29T07:50:50;14.00;;;4.40;;
12871;SDS011;6504;53.766;9.626;2023-05-29T07:53:18;10.90;;;3.73;;
12871;SDS011;6504;53.766;9.626;2023-05-29T07:55:46;12.63;;;3.63;;
12871;SDS011;6504;53.766;9.626;2023-05-29T07:58:14;11.10;;;4.10;;
12871;SDS011;6504;53.766;9.626;2023-05-29T08:00:44;16.40;;;4.50;;
12871;SDS011;6504;53.766;9.626;2023-05-29T08:03:12;9.90;;;4.20;;
12871;SDS011;6504;53.766;9.626;2023-05-29T08:05:42;11.50;;;4.10;;
12871;SDS011;6504;53.766;9.626;2023-05-29T08:08:10;13.07;;;3.97;;
12871;SDS011;6504;53.766;9.626;2023-05-29T08:10:39;11.53;;;3.80;;
12871;SDS011;6504;53.766;9.626;2023-05-29T08:13:08;11.83;;;3.83;;
12871;SDS011;6504;53.766;9.626;2023-05-29T08:15:36;13.90;;;3.90;;
12871;SDS011;6504;53.766;9.626;2023-05-29T08:18:05;12.50;;;3.87;;
12871;SDS011;6504;53.766;9.626;2023-05-29T08:20:34;14.70;;;3.80;;
12871;SDS011;6504;53.766;9.626;2023-05-29T08:23:02;12.47;;;3.97;;
12871;SDS011;6504;53.766;9.626;2023-05-29T08:25:30;9.50;;;3.70;;
12871;SDS011;6504;53.766;9.626;2023-05-29T08:27:58;16.00;;;4.63;;
12871;SDS011;6504;53.766;9.626;2023-05-29T08:30:26;10.70;;;3.80;;
12871;SDS011;6504;53.766;9.626;2023-05-29T08:32:54;10.03;;;3.93;;
12871;SDS011;6504;53.766;9.626;2023-05-29T08:35:23;11.07;;;4.10;;
12871;SDS011;6504;53.766;9.626;2023-05-29T08:37:52;13.80;;;3.80;;
12871;SDS011;6504;53.766;9.626;2023-05-29T08:40:20;11.70;;;4.13;;
12871;SDS011;6504;53.766;9.626;2023-05-29T08:42:50;11.53;;;3.80;;
12871;SDS011;6504;53.766;9.626;2023-05-29T08:45:24;12.50;;;3.80;;
12871;SDS011;6504;53.766;9.626;2023-05-29T08:47:52;9.63;;;3.87;;
12871;SDS011;6504;53.766;9.626;2023-05-29T08:50:21;10.63;;;3.43;;
12871;SDS011;6504;53.766;9.626;2023-05-29T08:52:51;8.03;;;3.27;;
12871;SDS011;6504;53.766;9.626;2023-05-29T08:55:20;11.27;;;3.97;;
12871;SDS011;6504;53.766;9.626;2023-05-29T08:57:48;12.47;;;3.77;;
12871;SDS011;6504;53.766;9.626;2023-05-29T09:00:17;9.30;;;3.67;;
12871;SDS011;6504;53.766;9.626;2023-05-29T09:02:48;12.17;;;3.70;;
12871;SDS011;6504;53.766;9.626;2023-05-29T09:05:19;11.00;;;3.70;;
12871;SDS011;6504;53.766;9.626;2023-05-29T09:07:47;13.57;;;3.53;;
12871;SDS011;6504;53.766;9.626;2023-05-29T09:10:18;12.83;;;3.80;;
12871;SDS011;6504;53.766;9.626;2023-05-29T09:12:48;9.63;;;3.20;;
12871;SDS011;6504;53.766;9.626;2023-05-29T09:15:17;11.10;;;3.70;;
12871;SDS011;6504;53.766;9.626;2023-05-29T09:17:49;10.43;;;3.80;;
12871;SDS011;6504;53.766;9.626;2023-05-29T09:20:19;8.40;;;3.83;;
12871;SDS011;6504;53.766;9.626;2023-05-29T09:22:53;12.63;;;3.70;;
12871;SDS011;6504;53.766;9.626;2023-05-29T09:25:23;11.07;;;3.87;;
12871;SDS011;6504;53.766;9.626;2023-05-29T09:27:54;11.93;;;4.27;;
12871;SDS011;6504;53.766;9.626;2023-05-29T09:30:35;11.07;;;3.47;;
12871;SDS011;6504;53.766;9.626;2023-05-29T09:33:05;8.23;;;3.80;;
12871;SDS011;6504;53.766;9.626;2023-05-29T09:35:35;12.60;;;3.40;;
12871;SDS011;6504;53.766;9.626;2023-05-29T09:38:04;10.63;;;3.67;;
12871;SDS011;6504;53.766;9.626;2023-05-29T09:40:35;8.50;;;3.37;;
12871;SDS011;6504;53.766;9.626;2023-05-29T09:43:04;8.93;;;3.43;;
12871;SDS011;6504;53.766;9.626;2023-05-29T09:45:36;9.07;;;3.40;;
12871;SDS011;6504;53.766;9.626;2023-05-29T09:48:06;8.93;;;3.63;;
12871;SDS011;6504;53.766;9.626;2023-05-29T09:50:35;10.90;;;3.33;;
12871;SDS011;6504;53.766;9.626;2023-05-29T09:53:03;8.63;;;3.63;;
12871;SDS011;6504;53.766;9.626;2023-05-29T09:55:45;10.10;;;3.47;;
12871;SDS011;6504;53.766;9.626;2023-05-29T09:58:13;9.60;;;3.73;;
12871;SDS011;6504;53.766;9.626;2023-05-29T10:00:42;11.63;;;3.43;;
12871;SDS011;6504;53.766;9.626;2023-05-29T10:03:11;10.73;;;3.30;;
12871;SDS011;6504;53.766;9.626;2023-05-29T10:05:39;8.80;;;3.37;;
12871;SDS011;6504;53.766;9.626;2023-05-29T10:08:08;9.67;;;3.67;;
12871;SDS011;6504;53.766;9.626;2023-05-29T10:10:39;9.27;;;3.50;;
12871;SDS011;6504;53.766;9.626;2023-05-29T10:13:13;9.43;;;3.70;;
12871;SDS011;6504;53.766;9.626;2023-05-29T10:15:43;9.53;;;3.30;;
12871;SDS011;6504;53.766;9.626;2023-05-29T10:18:13;8.20;;;3.17;;
12871;SDS011;6504;53.766;9.626;2023-05-29T10:20:47;12.10;;;3.40;;
12871;SDS011;6504;53.766;9.626;2023-05-29T10:23:20;12.10;;;3.53;;
12871;SDS011;6504;53.766;9.626;2023-05-29T10:25:49;10.03;;;3.57;;
12871;SDS011;6504;53.766;9.626;2023-05-29T10:28:21;9.60;;;3.47;;
12871;SDS011;6504;53.766;9.626;2023-05-29T10:30:52;10.17;;;3.90;;
12871;SDS011;6504;53.766;9.626;2023-05-29T10:33:31;7.37;;;3.27;;
12871;SDS011;6504;53.766;9.626;2023-05-29T10:36:18;8.13;;;3.17;;
12871;SDS011;6504;53.766;9.626;2023-05-29T10:38:48;9.67;;;3.37;;
12871;SDS011;6504;53.766;9.626;2023-05-29T10:41:32;8.23;;;3.20;;
12871;SDS011;6504;53.766;9.626;2023-05-29T10:47:08;10.77;;;3.20;;
12871;SDS011;6504;53.766;9.626;2023-05-29T10:49:39;8.23;;;3.10;;
12871;SDS011;6504;53.766;9.626;2023-05-29T10:52:16;8.73;;;3.23;;
12871;SDS011;6504;53.766;9.626;2023-05-29T10:54:52;7.17;;;3.13;;
12871;SDS011;6504;53.766;9.626;2023-05-29T10:57:21;6.10;;;2.87;;
12871;SDS011;6504;53.766;9.626;2023-05-29T11:00:01;8.70;;;2.93;;
12871;SDS011;6504;53.766;9.626;2023-05-29T11:02:35;7.07;;;3.03;;
12871;SDS011;6504;53.766;9.626;2023-05-29T11:05:06;9.57;;;3.30;;
12871;SDS011;6504;53.766;9.626;2023-05-29T11:07:54;7.03;;;2.90;;
12871;SDS011;6504;53.766;9.626;2023-05-29T11:13:11;8.37;;;3.43;;
12871;SDS011;6504;53.766;9.626;2023-05-29T11:16:05;9.50;;;3.13;;
12871;SDS011;6504;53.766;9.626;2023-05-29T11:18:41;8.20;;;3.47;;
12871;SDS011;6504;53.766;9.626;2023-05-29T11:21:13;6.30;;;2.73;;
12871;SDS011;6504;53.766;9.626;2023-05-29T11:23:59;7.93;;;3.10;;
12871;SDS011;6504;53.766;9.626;2023-05-29T11:26:33;8.37;;;2.90;;
12871;SDS011;6504;53.766;9.626;2023-05-29T11:29:04;7.60;;;3.13;;
12871;SDS011;6504;53.766;9.626;2023-05-29T11:31:38;7.43;;;2.87;;
12871;SDS011;6504;53.766;9.626;2023-05-29T11:34:09;10.03;;;3.27;;
12871;SDS011;6504;53.766;9.626;2023-05-29T11:36:41;10.13;;;3.37;;
12871;SDS011;6504;53.766;9.626;2023-05-29T11:39:09;7.67;;;3.40;;
12871;SDS011;6504;53.766;9.626;2023-05-29T11:41:37;10.13;;;3.33;;
12871;SDS011;6504;53.766;9.626;2023-05-29T11:44:05;6.10;;;3.17;;
12871;SDS011;6504;53.766;9.626;2023-05-29T11:46:34;5.40;;;2.60;;
12871;SDS011;6504;53.766;9.626;2023-05-29T11:49:03;7.73;;;3.07;;
12871;SDS011;6504;53.766;9.626;2023-05-29T11:51:31;7.23;;;2.83;;
12871;SDS011;6504;53.766;9.626;2023-05-29T11:53:59;7.83;;;2.90;;
12871;SDS011;6504;53.766;9.626;2023-05-29T11:56:28;7.87;;;3.37;;
12871;SDS011;6504;53.766;9.626;2023-05-29T11:58:58;7.97;;;2.93;;
12871;SDS011;6504;53.766;9.626;2023-05-29T12:01:28;5.77;;;2.63;;
12871;SDS011;6504;53.766;9.626;2023-05-29T12:03:56;7.70;;;3.27;;
12871;SDS011;6504;53.766;9.626;2023-05-29T12:06:32;6.93;;;3.10;;
12871;SDS011;6504;53.766;9.626;2023-05-29T12:09:02;6.70;;;2.90;;
12871;SDS011;6504;53.766;9.626;2023-05-29T12:11:31;6.07;;;2.67;;
12871;SDS011;6504;53.766;9.626;2023-05-29T12:14:01;9.93;;;3.47;;
12871;SDS011;6504;53.766;9.626;2023-05-29T12:16:29;7.20;;;2.97;;
12871;SDS011;6504;53.766;9.626;2023-05-29T12:19:00;9.63;;;3.27;;
12871;SDS011;6504;53.766;9.626;2023-05-29T12:21:28;8.07;;;3.00;;
12871;SDS011;6504;53.766;9.626;2023-05-29T12:23:57;10.20;;;3.00;;
12871;SDS011;6504;53.766;9.626;2023-05-29T12:26:29;6.43;;;2.80;;
12871;SDS011;6504;53.766;9.626;2023-05-29T12:29:01;7.00;;;3.27;;
12871;SDS011;6504;53.766;9.626;2023-05-29T12:31:30;6.67;;;2.80;;
12871;SDS011;6504;53.766;9.626;2023-05-29T12:34:01;6.67;;;2.80;;
12871;SDS011;6504;53.766;9.626;2023-05-29T12:36:30;5.83;;;2.60;;
12871;SDS011;6504;53.766;9.626;2023-05-29T12:39:04;7.63;;;3.13;;
12871;SDS011;6504;53.766;9.626;2023-05-29T12:41:35;8.23;;;2.80;;
12871;SDS011;6504;53.766;9.626;2023-05-29T12:44:04;8.77;;;3.10;;
12871;SDS011;6504;53.766;9.626;2023-05-29T12:46:37;6.60;;;3.00;;
12871;SDS011;6504;53.766;9.626;2023-05-29T12:49:13;8.63;;;3.33;;
12871;SDS011;6504;53.766;9.626;2023-05-29T12:51:41;9.13;;;3.20;;
12871;SDS011;6504;53.766;9.626;2023-05-29T12:54:12;8.00;;;3.00;;
12871;SDS011;6504;53.766;9.626;2023-05-29T12:56:41;9.00;;;3.50;;
12871;SDS011;6504;53.766;9.626;2023-05-29T12:59:09;11.27;;;3.40;;
12871;SDS011;6504;53.766;9.626;2023-05-29T13:01:38;8.87;;;3.60;;
12871;SDS011;6504;53.766;9.626;2023-05-29T13:04:07;9.37;;;3.47;;
12871;SDS011;6504;53.766;9.626;2023-05-29T13:06:36;8.03;;;3.27;;
12871;SDS011;6504;53.766;9.626;2023-05-29T13:09:05;8.33;;;3.57;;
12871;SDS011;6504;53.766;9.626;2023-05-29T13:11:35;8.80;;;3.60;;
12871;SDS011;6504;53.766;9.626;2023-05-29T13:14:04;9.83;;;3.30;;
12871;SDS011;6504;53.766;9.626;2023-05-29T13:16:32;8.80;;;3.00;;
12871;SDS011;6504;53.766;9.626;2023-05-29T13:19:01;8.23;;;3.20;;
12871;SDS011;6504;53.766;9.626;2023-05-29T13:21:29;8.73;;;3.63;;
12871;SDS011;6504;53.766;9.626;2023-05-29T13:23:58;8.53;;;3.17;;
12871;SDS011;6504;53.766;9.626;2023-05-29T13:26:26;6.87;;;3.40;;
12871;SDS011;6504;53.766;9.626;2023-05-29T13:28:56;9.20;;;3.20;;
12871;SDS011;6504;53.766;9.626;2023-05-29T13:31:24;8.43;;;3.23;;
12871;SDS011;6504;53.766;9.626;2023-05-29T13:33:52;9.83;;;3.57;;
12871;SDS011;6504;53.766;9.626;2023-05-29T13:36:20;8.43;;;3.23;;
12871;SDS011;6504;53.766;9.626;2023-05-29T13:38:48;10.47;;;3.60;;
12871;SDS011;6504;53.766;9.626;2023-05-29T13:41:16;9.70;;;3.57;;
12871;SDS011;6504;53.766;9.626;2023-05-29T13:43:44;8.83;;;3.33;;
12871;SDS011;6504;53.766;9.626;2023-05-29T13:46:14;9.07;;;3.57;;
12871;SDS011;6504;53.766;9.626;2023-05-29T13:48:42;7.80;;;3.20;;
12871;SDS011;6504;53.766;9.626;2023-05-29T13:51:10;7.50;;;3.00;;
12871;SDS011;6504;53.766;9.626;2023-05-29T13:53:38;9.57;;;3.20;;
12871;SDS011;6504;53.766;9.626;2023-05-29T13:56:06;9.30;;;3.30;;
12871;SDS011;6504;53.766;9.626;2023-05-29T13:58:34;7.67;;;3.27;;
12871;SDS011;6504;53.766;9.626;2023-05-29T14:01:02;12.17;;;3.63;;
12871;SDS011;6504;53.766;9.626;2023-05-29T14:03:32;7.93;;;2.57;;
12871;SDS011;6504;53.766;9.626;2023-05-29T14:06:00;6.60;;;2.93;;
12871;SDS011;6504;53.766;9.626;2023-05-29T14:08:31;7.77;;;2.80;;
12871;SDS011;6504;53.766;9.626;2023-05-29T14:10:59;7.27;;;3.17;;
12871;SDS011;6504;53.766;9.626;2023-05-29T14:13:27;7.40;;;3.23;;
12871;SDS011;6504;53.766;9.626;2023-05-29T14:15:55;7.70;;;3.20;;
12871;SDS011;6504;53.766;9.626;2023-05-29T14:18:23;9.33;;;3.50;;
12871;SDS011;6504;53.766;9.626;2023-05-29T14:20:53;8.50;;;3.40;;
12871;SDS011;6504;53.766;9.626;2023-05-29T14:23:21;7.30;;;3.00;;
12871;SDS011;6504;53.766;9.626;2023-05-29T14:25:49;8.93;;;3.53;;
12871;SDS011;6504;53.766;9.626;2023-05-29T14:28:18;6.77;;;3.07;;
12871;SDS011;6504;53.766;9.626;2023-05-29T14:30:46;7.97;;;3.13;;
12871;SDS011;6504;53.766;9.626;2023-05-29T14:33:14;9.10;;;3.50;;
12871;SDS011;6504;53.766;9.626;2023-05-29T14:35:42;8.40;;;3.10;;
12871;SDS011;6504;53.766;9.626;2023-05-29T14:38:12;8.90;;;3.60;;
12871;SDS011;6504;53.766;9.626;2023-05-29T14:40:40;10.07;;;3.53;;
12871;SDS011;6504;53.766;9.626;2023-05-29T14:43:09;8.50;;;3.30;;
12871;SDS011;6504;53.766;9.626;2023-05-29T14:45:37;12.60;;;3.80;;
12871;SDS011;6504;53.766;9.626;2023-05-29T14:48:05;8.97;;;3.70;;
12871;SDS011;6504;53.766;9.626;2023-05-29T14:50:33;8.77;;;3.60;;
12871;SDS011;6504;53.766;9.626;2023-05-29T14:53:01;9.77;;;3.33;;
12871;SDS011;6504;53.766;9.626;2023-05-29T14:55:31;6.80;;;3.30;;
12871;SDS011;6504;53.766;9.626;2023-05-29T14:58:03;8.90;;;3.37;;
12871;SDS011;6504;53.766;9.626;2023-05-29T15:00:32;9.23;;;3.67;;
12871;SDS011;6504;53.766;9.626;2023-05-29T15:03:00;6.90;;;3.07;;
12871;SDS011;6504;53.766;9.626;2023-05-29T15:05:28;9.07;;;3.33;;
12871;SDS011;6504;53.766;9.626;2023-05-29T15:07:57;9.67;;;3.50;;
12871;SDS011;6504;53.766;9.626;2023-05-29T15:10:26;9.10;;;3.27;;
12871;SDS011;6504;53.766;9.626;2023-05-29T15:12:56;8.57;;;3.60;;
12871;SDS011;6504;53.766;9.626;2023-05-29T15:15:24;11.63;;;3.80;;